Ascot, United Kingdom
Current Conditions -  °F | °C
As of 9:20 PM on Tuesday 21 Oct 2014 (Local Time) from EGLF Reporting Station
Few Clouds Few Clouds  
Wind Chill: 41°   Ceiling: Unl
Heat Index: 46°   Visibility: 6mi
Dew Point: 37°   Wind: 12mph
Humidity: 71%   Direction: 300°WNW
Pressure: 30.09"   Gusts: NA
Location:  51.41°N, 0.67°W
Report Text: EGLF 212020Z 30010KT 260V340 9999 FEW048 08/03 Q1019
Loading
Personal Weather Stations






























Interactive Weather Map
Tropical Storm Tracking
New forecast layout! Learn more

10-Day Weather Forecast

Advertisements
Track Severe Weather on mobile